createdAt,value
2022-11-13T00:00:37.634Z,12.77
2022-11-13T00:02:40.299Z,12.90
2022-11-13T00:04:43.475Z,12.33
2022-11-13T00:06:46.256Z,12.50
2022-11-13T00:08:49.073Z,12.07
2022-11-13T00:10:51.704Z,12.20
2022-11-13T00:12:55.962Z,11.97
2022-11-13T00:14:58.930Z,11.77
2022-11-13T00:17:05.930Z,11.33
2022-11-13T00:19:08.732Z,11.57
2022-11-13T00:21:13.217Z,11.60
2022-11-13T00:23:15.909Z,11.13
2022-11-13T00:25:18.678Z,10.70
2022-11-13T00:27:21.305Z,11.40
2022-11-13T00:29:24.401Z,12.50
2022-11-13T00:31:27.201Z,11.10
2022-11-13T00:34:02.112Z,12.33
2022-11-13T00:35:54.145Z,11.17
2022-11-13T00:37:57.102Z,11.60
2022-11-13T00:39:59.942Z,11.40
2022-11-13T00:42:02.648Z,11.20
2022-11-13T00:44:05.494Z,11.30
2022-11-13T00:46:08.551Z,11.20
2022-11-13T00:48:11.222Z,11.43
2022-11-13T00:50:15.184Z,10.40
2022-11-13T00:52:17.813Z,11.50
2022-11-13T00:54:20.935Z,10.70
2022-11-13T00:56:23.588Z,10.87
2022-11-13T00:58:26.657Z,10.17
2022-11-13T01:00:29.583Z,10.87
2022-11-13T01:02:32.220Z,12.10
2022-11-13T01:04:34.896Z,11.13
2022-11-13T01:06:38.958Z,10.60
2022-11-13T01:08:41.726Z,10.93
2022-11-13T01:10:52.973Z,11.40
2022-11-13T01:12:56.248Z,10.67
2022-11-13T01:14:59.241Z,10.60
2022-11-13T01:17:01.910Z,10.13
2022-11-13T01:19:04.709Z,10.80
2022-11-13T01:21:08.133Z,11.07
2022-11-13T01:23:12.429Z,10.73
2022-11-13T01:25:15.330Z,11.30
2022-11-13T01:27:17.981Z,11.00
2022-11-13T01:29:20.617Z,11.20
2022-11-13T01:31:24.616Z,12.00
2022-11-13T01:33:27.286Z,10.70
2022-11-13T01:35:29.955Z,10.10
2022-11-13T01:37:35.592Z,10.80
2022-11-13T01:39:40.163Z,11.20
2022-11-13T01:41:42.842Z,10.77
2022-11-13T01:43:45.486Z,10.10
2022-11-13T01:46:07.187Z,10.10
2022-11-13T01:48:10.707Z,10.77
2022-11-13T01:50:15.365Z,10.80
2022-11-13T01:52:19.582Z,10.63
2022-11-13T01:54:24.003Z,11.17
2022-11-13T01:56:27.921Z,10.40
2022-11-13T01:58:30.811Z,10.50
2022-11-13T02:00:33.540Z,10.73
2022-11-13T02:02:36.860Z,10.20
2022-11-13T02:04:39.530Z,11.30
2022-11-13T02:06:43.682Z,9.80
2022-11-13T02:08:46.441Z,10.50
2022-11-13T02:10:49.496Z,10.70
2022-11-13T02:12:53.463Z,10.43
2022-11-13T02:14:56.132Z,10.27
2022-11-13T02:17:00.110Z,10.33
2022-11-13T02:19:03.215Z,10.40
2022-11-13T02:21:10.129Z,11.10
2022-11-13T02:23:15.314Z,9.90
2022-11-13T02:25:19.333Z,9.20
2022-11-13T02:27:27.964Z,10.00
2022-11-13T02:29:30.639Z,10.30
2022-11-13T02:31:33.264Z,10.63
2022-11-13T02:33:35.869Z,10.03
2022-11-13T02:35:39.973Z,9.53
2022-11-13T02:37:42.661Z,9.80
2022-11-13T02:39:45.332Z,9.30
2022-11-13T02:41:49.379Z,10.47
2022-11-13T02:43:53.356Z,9.70
2022-11-13T02:45:55.987Z,10.63
2022-11-13T02:48:00.620Z,9.33
2022-11-13T02:50:03.501Z,9.33
2022-11-13T02:52:07.597Z,10.30
2022-11-13T02:54:15.598Z,10.67
2022-11-13T02:56:19.484Z,9.60
2022-11-13T02:58:23.425Z,10.10
2022-11-13T03:00:26.397Z,9.57
2022-11-13T03:02:29.028Z,10.17
2022-11-13T03:05:04.832Z,10.37
2022-11-13T03:06:54.833Z,11.40
2022-11-13T03:08:57.555Z,9.77
2022-11-13T03:11:00.246Z,10.60
2022-11-13T03:13:02.860Z,11.20
2022-11-13T03:15:07.448Z,11.43
2022-11-13T03:17:10.147Z,10.80
2022-11-13T03:19:12.808Z,10.77
2022-11-13T03:21:16.135Z,10.77
2022-11-13T03:23:18.771Z,10.47
2022-11-13T03:25:21.802Z,11.63
2022-11-13T03:27:24.458Z,10.97
2022-11-13T03:29:27.587Z,10.47
2022-11-13T03:31:31.595Z,12.43
2022-11-13T03:33:34.300Z,12.03
2022-11-13T03:35:44.208Z,12.23
2022-11-13T03:37:49.592Z,11.67
2022-11-13T03:39:52.264Z,11.90
2022-11-13T03:41:55.002Z,12.90
2022-11-13T03:43:57.999Z,13.07
2022-11-13T03:46:00.670Z,12.67
2022-11-13T03:48:04.785Z,13.03
2022-11-13T03:50:07.683Z,13.37
2022-11-13T03:52:10.769Z,12.80
2022-11-13T03:54:13.426Z,12.53
2022-11-13T03:56:16.070Z,13.13
2022-11-13T03:58:18.726Z,13.80
2022-11-13T04:00:22.840Z,12.20
2022-11-13T04:02:25.520Z,13.80
2022-11-13T04:04:29.487Z,13.27
2022-11-13T04:06:32.766Z,14.23
2022-11-13T04:08:35.753Z,12.97
2022-11-13T04:10:38.429Z,14.47
2022-11-13T04:12:41.091Z,13.17
2022-11-13T04:14:44.046Z,13.50
2022-11-13T04:16:46.700Z,14.03
2022-11-13T04:18:49.360Z,12.80
2022-11-13T04:20:53.292Z,14.00
2022-11-13T04:22:56.993Z,14.47
2022-11-13T04:24:59.673Z,13.33
2022-11-13T04:27:02.355Z,14.37
2022-11-13T04:29:05.014Z,13.90
2022-11-13T04:31:08.004Z,13.57
2022-11-13T04:33:10.645Z,14.30
2022-11-13T04:35:13.299Z,13.63
2022-11-13T04:37:17.300Z,15.50
2022-11-13T04:39:21.478Z,14.47
2022-11-13T04:41:35.110Z,13.70
2022-11-13T04:43:37.753Z,14.33
2022-11-13T04:45:40.423Z,14.33
2022-11-13T04:47:44.649Z,13.87
2022-11-13T04:49:47.289Z,14.47
2022-11-13T04:51:49.976Z,14.43
2022-11-13T04:53:53.905Z,14.20
2022-11-13T04:55:56.885Z,13.73
2022-11-13T04:57:59.904Z,14.00
2022-11-13T05:00:02.694Z,13.77
2022-11-13T05:02:10.990Z,15.40
2022-11-13T05:04:14.655Z,14.10
2022-11-13T05:06:17.365Z,14.20
2022-11-13T05:08:19.973Z,14.23
2022-11-13T05:10:25.318Z,13.17
2022-11-13T05:12:27.966Z,14.83
2022-11-13T05:14:30.617Z,14.40
2022-11-13T05:16:34.213Z,15.20
2022-11-13T05:18:37.761Z,14.83
2022-11-13T05:20:40.401Z,14.57
2022-11-13T05:22:43.066Z,15.80
2022-11-13T05:24:45.704Z,15.10
2022-11-13T05:26:50.090Z,14.40
2022-11-13T05:28:52.804Z,14.73
2022-11-13T05:30:55.451Z,15.40
2022-11-13T05:32:58.064Z,14.70
2022-11-13T05:35:07.146Z,14.43
2022-11-13T05:37:09.781Z,15.67
2022-11-13T05:39:12.458Z,14.30
2022-11-13T05:41:16.350Z,14.50
2022-11-13T05:43:20.954Z,13.80
2022-11-13T05:45:23.659Z,15.20
2022-11-13T05:47:26.292Z,14.37
2022-11-13T05:49:28.973Z,14.70
2022-11-13T05:51:33.308Z,14.30
2022-11-13T05:53:36.262Z,14.93
2022-11-13T05:55:38.900Z,14.80
2022-11-13T05:57:41.596Z,14.43
2022-11-13T05:59:46.200Z,12.93
2022-11-13T06:01:48.893Z,14.30
2022-11-13T06:03:53.668Z,13.70
2022-11-13T06:05:56.363Z,14.30
2022-11-13T06:07:59.043Z,14.10
2022-11-13T06:10:01.683Z,14.27
2022-11-13T06:12:04.404Z,14.90
2022-11-13T06:14:07.395Z,14.23
2022-11-13T06:16:12.714Z,15.40
2022-11-13T06:18:15.337Z,14.07
2022-11-13T06:20:18.179Z,13.87
2022-11-13T06:22:22.250Z,14.13
2022-11-13T06:24:25.097Z,14.53
2022-11-13T06:26:28.918Z,14.73
2022-11-13T06:28:32.031Z,13.83
2022-11-13T06:30:35.200Z,13.47
2022-11-13T06:32:39.158Z,14.40
2022-11-13T06:34:41.906Z,13.53
2022-11-13T06:36:53.912Z,13.50
2022-11-13T06:38:56.747Z,14.37
2022-11-13T06:40:59.565Z,14.33
2022-11-13T06:43:02.238Z,14.13
2022-11-13T06:45:05.931Z,14.70
2022-11-13T06:47:09.560Z,13.13
2022-11-13T06:49:13.521Z,13.87
2022-11-13T06:51:17.697Z,13.63
2022-11-13T06:53:20.818Z,14.20
2022-11-13T06:55:23.502Z,13.50
2022-11-13T06:57:26.126Z,14.10
2022-11-13T06:59:28.845Z,14.07
2022-11-13T07:01:31.967Z,13.60
2022-11-13T07:03:34.636Z,14.03
2022-11-13T07:05:38.671Z,14.07
2022-11-13T07:07:41.385Z,14.30
2022-11-13T07:09:44.552Z,13.70
2022-11-13T07:11:47.199Z,13.43
2022-11-13T07:13:49.884Z,12.57
2022-11-13T07:15:52.639Z,13.03
2022-11-13T07:17:55.659Z,13.23
2022-11-13T07:19:58.379Z,13.30
2022-11-13T07:22:02.338Z,13.23
2022-11-13T07:24:05.527Z,12.70
2022-11-13T07:26:08.969Z,12.37
2022-11-13T07:28:11.662Z,12.20
2022-11-13T07:30:14.593Z,12.33
2022-11-13T07:32:17.244Z,12.67
2022-11-13T07:34:20.279Z,11.50
2022-11-13T07:36:22.925Z,12.67
2022-11-13T07:38:27.406Z,13.23
2022-11-13T07:40:30.281Z,12.00
2022-11-13T07:42:33.243Z,12.73
2022-11-13T07:45:04.451Z,12.10
2022-11-13T07:46:58.529Z,11.93
2022-11-13T07:49:01.236Z,12.20
2022-11-13T07:51:04.300Z,12.20
2022-11-13T07:53:08.343Z,13.23
2022-11-13T07:55:12.303Z,12.77
2022-11-13T07:57:15.687Z,12.57
2022-11-13T07:59:18.334Z,12.70
2022-11-13T08:01:21.008Z,11.77
2022-11-13T08:03:23.735Z,12.10
2022-11-13T08:05:26.887Z,12.27
2022-11-13T08:07:29.544Z,11.90
2022-11-13T08:09:32.173Z,12.63
2022-11-13T08:11:36.294Z,12.50
2022-11-13T08:13:39.525Z,11.90
2022-11-13T08:15:42.697Z,11.67
2022-11-13T08:17:45.390Z,12.03
2022-11-13T08:19:48.022Z,12.13
2022-11-13T08:21:50.667Z,11.90
2022-11-13T08:23:53.308Z,12.17
2022-11-13T08:25:55.963Z,11.93
2022-11-13T08:27:59.911Z,13.10
2022-11-13T08:30:02.623Z,12.53
2022-11-13T08:32:06.019Z,13.43
2022-11-13T08:34:08.659Z,11.43
2022-11-13T08:36:11.373Z,13.00
2022-11-13T08:38:14.056Z,12.37
2022-11-13T08:40:18.281Z,12.90
2022-11-13T08:42:20.934Z,11.93
2022-11-13T08:44:24.918Z,12.33
2022-11-13T08:46:27.582Z,13.50
2022-11-13T08:48:31.161Z,12.67
2022-11-13T08:50:34.546Z,11.43
2022-11-13T08:52:37.140Z,13.00
2022-11-13T08:54:39.774Z,13.07
2022-11-13T08:56:42.819Z,11.90
2022-11-13T08:58:45.456Z,13.70
2022-11-13T09:00:52.541Z,12.50
2022-11-13T09:02:56.070Z,12.90
2022-11-13T09:05:00.126Z,12.47
2022-11-13T09:07:02.853Z,12.63
2022-11-13T09:09:06.898Z,13.60
2022-11-13T10:49:36.496Z,14.00
2022-11-13T10:51:39.731Z,14.10
2022-11-13T10:53:43.108Z,14.30
2022-11-13T10:55:45.989Z,14.23
2022-11-13T10:57:56.656Z,14.40
2022-11-13T10:59:59.362Z,14.27
2022-11-13T11:02:10.076Z,14.40
2022-11-13T11:04:14.459Z,14.67
2022-11-13T11:06:18.324Z,15.27
2022-11-13T11:08:21.562Z,14.60
2022-11-13T11:10:30.095Z,15.00
2022-11-13T11:12:31.796Z,14.50
2022-11-13T11:14:36.229Z,14.50
2022-11-13T11:16:38.987Z,14.13
2022-11-13T11:18:43.459Z,14.73
2022-11-13T11:20:48.258Z,15.50
2022-11-13T11:22:55.491Z,15.50
2022-11-13T11:25:03.746Z,14.87
2022-11-13T11:27:10.413Z,15.70
2022-11-13T11:29:17.674Z,14.77
2022-11-13T11:31:26.837Z,16.07
2022-11-13T11:33:32.341Z,14.33
2022-11-13T11:35:39.840Z,15.63
2022-11-13T11:37:45.037Z,15.40
2022-11-13T11:39:51.090Z,13.87
2022-11-13T11:41:56.750Z,14.60
2022-11-13T11:44:28.297Z,13.77
2022-11-13T11:46:30.974Z,14.80
2022-11-13T11:48:33.704Z,14.27
2022-11-13T11:50:38.930Z,14.43
2022-11-13T11:52:53.766Z,15.60
2022-11-13T11:55:03.247Z,14.13
2022-11-13T11:57:09.006Z,15.33
2022-11-13T11:59:27.106Z,14.90
2022-11-13T12:01:38.091Z,14.40
2022-11-13T12:03:55.415Z,14.03
2022-11-13T12:06:04.640Z,14.17
2022-11-13T12:08:12.442Z,14.43
2022-11-13T12:10:24.890Z,13.50
2022-11-13T12:12:31.873Z,13.77
2022-11-13T12:14:41.179Z,14.13
2022-11-13T12:16:50.029Z,13.63
2022-11-13T12:18:55.472Z,14.00
2022-11-13T12:21:04.021Z,13.40
2022-11-13T12:23:15.158Z,13.83
2022-11-13T12:25:22.188Z,14.47
2022-11-13T12:27:29.169Z,12.97
2022-11-13T12:29:40.982Z,13.37
2022-11-13T12:31:49.398Z,13.80
2022-11-13T12:34:01.112Z,13.03
2022-11-13T12:36:04.593Z,13.20
2022-11-13T12:38:14.077Z,13.40
2022-11-13T12:40:20.984Z,13.67
2022-11-13T12:42:30.250Z,11.63
2022-11-13T12:44:33.573Z,13.03
2022-11-13T12:46:37.466Z,12.93
2022-11-13T12:48:41.985Z,12.57
2022-11-13T12:50:44.724Z,11.77
2022-11-13T12:52:59.209Z,13.77
2022-11-13T12:55:07.645Z,13.50
2022-11-13T12:57:25.880Z,13.40
2022-11-13T12:59:36.607Z,13.07
2022-11-13T13:01:47.581Z,12.93
2022-11-13T13:04:05.627Z,13.70
2022-11-13T13:06:21.547Z,12.40
2022-11-13T13:08:35.786Z,12.87
2022-11-13T13:10:46.594Z,12.07
2022-11-13T13:12:54.321Z,13.70
2022-11-13T13:15:09.922Z,12.40
2022-11-13T13:17:20.212Z,12.50
2022-11-13T13:19:26.205Z,13.13
2022-11-13T13:21:29.039Z,13.00
2022-11-13T13:23:32.727Z,13.23
2022-11-13T13:25:36.165Z,12.33
2022-11-13T13:27:39.557Z,11.40
2022-11-13T13:29:42.600Z,12.30
2022-11-13T13:31:50.062Z,13.00
2022-11-13T13:33:58.955Z,12.93
2022-11-13T13:36:07.853Z,13.10
2022-11-13T13:38:17.040Z,12.50
2022-11-13T13:40:30.939Z,13.03
2022-11-13T13:42:42.771Z,12.00
2022-11-13T13:44:56.033Z,12.77
2022-11-13T13:47:00.754Z,12.40
2022-11-13T13:49:06.030Z,13.77
2022-11-13T13:51:17.548Z,12.87
2022-11-13T13:53:24.174Z,13.60
2022-11-13T13:55:28.968Z,14.77
2022-11-13T13:57:31.596Z,14.17
2022-11-13T13:59:38.888Z,14.67
2022-11-13T14:01:42.848Z,14.27
2022-11-13T14:03:48.828Z,14.30
2022-11-13T14:05:51.897Z,14.20
2022-11-13T14:07:55.837Z,13.67
2022-11-13T14:10:09.714Z,14.70
2022-11-13T14:12:20.020Z,14.33
2022-11-13T14:14:24.747Z,15.30
2022-11-13T14:16:28.785Z,14.50
2022-11-13T14:18:32.863Z,13.30
2022-11-13T14:20:41.938Z,14.80
2022-11-13T14:22:45.228Z,14.40
2022-11-13T14:24:49.732Z,14.20
2022-11-13T14:26:53.274Z,14.40
2022-11-13T14:28:56.876Z,14.27
2022-11-13T14:31:01.880Z,14.67
2022-11-13T14:33:08.923Z,13.87
2022-11-13T14:35:20.258Z,14.83
2022-11-13T14:37:26.419Z,14.43
2022-11-13T14:39:30.800Z,14.17
2022-11-13T14:41:35.459Z,14.10
2022-11-13T14:43:38.093Z,14.33
2022-11-13T14:45:40.702Z,14.40
2022-11-13T14:47:43.629Z,15.40
2022-11-13T14:49:46.316Z,14.83
2022-11-13T14:51:55.497Z,13.70
2022-11-13T14:54:03.832Z,14.57
2022-11-13T14:56:10.662Z,14.10
2022-11-13T14:58:14.651Z,14.80
2022-11-13T15:00:18.734Z,13.60
2022-11-13T15:02:22.734Z,14.73
2022-11-13T15:04:25.542Z,14.13
2022-11-13T15:06:42.849Z,14.67
2022-11-13T15:08:51.632Z,15.10
2022-11-13T15:11:01.146Z,14.30
2022-11-13T15:13:09.262Z,15.07
2022-11-13T15:15:15.304Z,14.60
2022-11-13T15:17:20.393Z,14.90
2022-11-13T15:19:27.866Z,14.60
2022-11-13T15:21:30.586Z,14.50
2022-11-13T15:23:33.190Z,14.27
2022-11-13T15:25:35.910Z,14.77
2022-11-13T15:27:43.103Z,14.70
2022-11-13T15:29:46.223Z,14.07
2022-11-13T15:31:49.142Z,14.10
2022-11-13T15:34:00.350Z,13.90
2022-11-13T15:36:02.959Z,14.53
2022-11-13T15:38:06.095Z,13.80
2022-11-13T15:40:09.647Z,13.70
2022-11-13T15:42:15.094Z,13.77
2022-11-13T15:44:19.023Z,13.70
2022-11-13T15:46:22.994Z,13.17
2022-11-13T15:48:25.657Z,14.10
2022-11-13T15:50:28.841Z,13.23
2022-11-13T15:52:32.694Z,14.70
2022-11-13T15:54:36.920Z,13.77
2022-11-13T15:56:41.274Z,14.23
2022-11-13T15:58:45.232Z,14.97
2022-11-13T16:00:50.353Z,13.33
2022-11-13T16:02:56.018Z,14.60
2022-11-13T16:04:59.716Z,14.20
2022-11-13T16:07:03.611Z,14.20
2022-11-13T16:09:06.271Z,12.83
2022-11-13T16:11:12.243Z,14.73
2022-11-13T16:13:15.019Z,13.23
2022-11-13T16:15:21.458Z,14.13
2022-11-13T16:17:25.730Z,13.90
2022-11-13T16:19:29.891Z,13.00
2022-11-13T16:21:33.798Z,14.57
2022-11-13T16:23:39.283Z,13.07
2022-11-13T16:25:42.394Z,13.30
2022-11-13T16:27:45.645Z,13.10
2022-11-13T16:29:48.255Z,12.90
2022-11-13T16:31:52.505Z,13.17
2022-11-13T16:33:56.415Z,13.13
2022-11-13T16:35:59.714Z,13.47
2022-11-13T16:38:03.831Z,13.07
2022-11-13T16:40:14.469Z,13.40
2022-11-13T16:42:17.475Z,13.50
2022-11-13T16:44:20.105Z,14.63
2022-11-13T16:46:27.280Z,14.00
2022-11-13T16:48:29.893Z,14.50
2022-11-13T16:50:34.716Z,13.90
2022-11-13T16:52:37.337Z,14.77
2022-11-13T16:54:40.020Z,15.00
2022-11-13T16:56:44.926Z,15.20
2022-11-13T16:58:47.979Z,16.03
2022-11-13T17:00:50.589Z,15.73
2022-11-13T17:02:54.882Z,14.83
2022-11-13T17:04:59.087Z,14.70
2022-11-13T17:07:03.396Z,15.77
2022-11-13T17:09:06.587Z,16.70
2022-11-13T17:11:10.029Z,15.40
2022-11-13T17:13:18.903Z,15.70
2022-11-13T17:15:21.711Z,14.57
2022-11-13T17:17:24.413Z,15.97
2022-11-13T17:19:27.126Z,16.03
2022-11-13T17:21:30.608Z,15.00
2022-11-13T17:23:35.037Z,15.40
2022-11-13T17:25:37.679Z,16.17
2022-11-13T17:27:40.315Z,15.70
2022-11-13T17:29:43.728Z,16.80
2022-11-13T17:31:50.713Z,15.93
2022-11-13T17:33:55.208Z,15.63
2022-11-13T17:35:59.639Z,16.97
2022-11-13T17:38:06.112Z,15.37
2022-11-13T17:40:13.261Z,17.93
2022-11-13T17:42:16.033Z,17.60
2022-11-13T17:44:18.714Z,16.43
2022-11-13T17:46:22.835Z,17.73
2022-11-13T17:48:25.490Z,17.17
2022-11-13T17:50:28.549Z,18.03
2022-11-13T17:52:31.156Z,17.70
2022-11-13T17:54:34.152Z,18.60
2022-11-13T17:56:38.534Z,17.70
2022-11-13T17:58:42.505Z,17.67
2022-11-13T18:00:45.116Z,17.70
2022-11-13T18:02:50.007Z,18.00
2022-11-13T18:04:53.978Z,17.97
2022-11-13T18:06:56.694Z,18.60
2022-11-13T18:08:59.396Z,18.60
2022-11-13T18:11:07.897Z,17.30
2022-11-13T18:13:11.855Z,18.10
2022-11-13T18:15:14.571Z,18.20
2022-11-13T18:17:17.326Z,19.63
2022-11-13T18:19:21.829Z,19.03
2022-11-13T18:21:27.494Z,20.83
2022-11-13T18:23:33.062Z,20.03
2022-11-13T18:25:39.899Z,20.93
2022-11-13T18:27:48.566Z,19.53
2022-11-13T18:29:52.818Z,18.90
2022-11-13T18:31:57.170Z,19.50
2022-11-13T18:34:02.550Z,20.33
2022-11-13T18:36:06.626Z,20.33
2022-11-13T18:38:10.968Z,19.33
2022-11-13T18:40:16.164Z,18.87
2022-11-13T18:42:21.310Z,19.80
2022-11-13T18:44:27.382Z,19.07
2022-11-13T18:46:34.574Z,19.73
2022-11-13T18:48:40.851Z,20.40
2022-11-13T18:50:45.631Z,20.10
2022-11-13T18:52:51.021Z,21.23
2022-11-13T18:54:54.625Z,20.27
2022-11-13T18:56:58.831Z,22.17
2022-11-13T18:59:02.643Z,20.10
2022-11-13T19:01:10.869Z,21.33
2022-11-13T19:03:15.965Z,21.93
2022-11-13T19:05:19.618Z,20.47
2022-11-13T19:07:22.783Z,19.30
2022-11-13T19:09:29.520Z,20.37
2022-11-13T19:11:33.829Z,20.97
2022-11-13T19:13:37.224Z,21.57
2022-11-13T19:15:40.487Z,20.10
2022-11-13T19:17:47.060Z,19.57
2022-11-13T19:19:53.719Z,21.10
2022-11-13T19:21:56.342Z,20.90
2022-11-13T19:23:59.794Z,21.20
2022-11-13T19:26:10.735Z,21.33
2022-11-13T19:28:15.978Z,19.27
2022-11-13T19:30:19.187Z,21.67
2022-11-13T19:32:22.339Z,21.20
2022-11-13T19:34:25.530Z,21.77
2022-11-13T19:36:31.013Z,20.57
2022-11-13T19:38:33.927Z,20.40
2022-11-13T19:40:36.598Z,21.20
2022-11-13T19:42:41.975Z,21.40
2022-11-13T19:44:45.383Z,20.50
2022-11-13T19:46:49.766Z,21.03
2022-11-13T19:48:52.803Z,20.97
2022-11-13T19:50:55.479Z,20.80
2022-11-13T19:52:59.431Z,20.77
2022-11-13T19:55:02.989Z,22.00
2022-11-13T19:57:06.068Z,22.97
2022-11-13T19:59:10.919Z,20.07
2022-11-13T20:01:15.266Z,22.83
2022-11-13T20:03:18.989Z,22.70
2022-11-13T20:05:22.456Z,20.93
2022-11-13T20:07:25.578Z,21.73
2022-11-13T20:09:30.936Z,21.47
2022-11-13T20:11:33.949Z,21.23
2022-11-13T20:13:37.166Z,22.53
2022-11-13T20:15:39.858Z,20.67
2022-11-13T20:17:42.541Z,22.13
2022-11-13T20:19:45.280Z,22.03
2022-11-13T20:21:49.376Z,21.63
2022-11-13T20:23:53.354Z,21.00
2022-11-13T20:25:58.637Z,22.60
2022-11-13T20:28:01.295Z,21.70
2022-11-13T20:30:09.854Z,21.77
2022-11-13T20:32:12.767Z,21.70
2022-11-13T20:34:15.650Z,21.00
2022-11-13T20:36:18.398Z,21.50
2022-11-13T20:38:21.592Z,21.73
2022-11-13T20:40:25.540Z,20.40
2022-11-13T20:42:31.740Z,20.53
2022-11-13T20:44:34.477Z,20.27
2022-11-13T20:46:38.169Z,20.80
2022-11-13T20:48:45.510Z,21.53
2022-11-13T20:50:48.487Z,19.43
2022-11-13T20:52:51.300Z,18.93
2022-11-13T20:54:56.649Z,19.60
2022-11-13T20:56:59.322Z,19.00
2022-11-13T20:59:05.386Z,19.60
2022-11-13T21:01:08.771Z,19.90
2022-11-13T21:03:11.855Z,19.27
2022-11-13T21:05:15.374Z,19.73
2022-11-13T21:07:18.094Z,19.63
2022-11-13T21:09:20.753Z,19.57
2022-11-13T21:11:26.355Z,19.63
2022-11-13T21:13:29.091Z,19.87
2022-11-13T21:15:33.943Z,19.20
2022-11-13T21:17:37.580Z,19.30
2022-11-13T21:19:40.682Z,18.97
2022-11-13T21:21:43.748Z,19.43
2022-11-13T21:23:46.446Z,20.50
2022-11-13T21:26:01.351Z,18.33
2022-11-13T21:28:04.930Z,18.80
2022-11-13T21:30:09.233Z,18.60
2022-11-13T21:32:16.981Z,17.97
2022-11-13T21:34:22.214Z,18.70
2022-11-13T21:36:27.446Z,18.33
2022-11-13T21:38:30.614Z,17.80
2022-11-13T21:40:33.487Z,18.10
2022-11-13T21:42:38.213Z,18.27
2022-11-13T21:44:41.455Z,18.10
2022-11-13T21:46:47.724Z,19.10
2022-11-13T21:48:56.351Z,18.43
2022-11-13T21:50:59.061Z,19.20
2022-11-13T21:53:02.138Z,17.70
2022-11-13T21:55:05.101Z,19.33
2022-11-13T21:57:10.794Z,18.30
2022-11-13T21:59:13.462Z,18.47
2022-11-13T22:01:16.121Z,18.93
2022-11-13T22:03:18.840Z,19.30
2022-11-13T22:05:23.107Z,18.33
2022-11-13T22:07:25.851Z,19.97
2022-11-13T22:09:28.923Z,19.27
2022-11-13T22:11:32.494Z,20.33
2022-11-13T22:13:35.385Z,20.40
2022-11-13T22:15:38.029Z,18.30
2022-11-13T22:17:41.763Z,20.67
2022-11-13T22:19:44.528Z,19.00
2022-11-13T22:21:49.012Z,20.60
2022-11-13T22:23:51.928Z,19.30
2022-11-13T22:25:59.497Z,18.00
2022-11-13T22:28:02.226Z,21.23
2022-11-13T22:30:05.553Z,20.20
2022-11-13T22:32:08.177Z,19.67
2022-11-13T22:34:10.786Z,19.00
2022-11-13T22:36:14.302Z,19.80
2022-11-13T22:38:18.651Z,19.87
2022-11-13T22:40:21.322Z,19.40
2022-11-13T22:42:24.001Z,18.90
2022-11-13T22:44:45.454Z,19.57
2022-11-13T22:46:49.524Z,19.87
2022-11-13T22:48:52.685Z,18.33
2022-11-13T22:50:55.339Z,18.73
2022-11-13T22:52:58.515Z,19.60
2022-11-13T22:55:02.453Z,18.60
2022-11-13T22:57:05.279Z,18.47
2022-11-13T22:59:09.038Z,18.27
2022-11-13T23:01:14.524Z,19.33
2022-11-13T23:03:17.223Z,19.43
2022-11-13T23:05:19.889Z,18.43
2022-11-13T23:07:22.599Z,19.00
2022-11-13T23:09:27.154Z,19.13
2022-11-13T23:11:32.859Z,18.17
2022-11-13T23:13:35.611Z,19.30
2022-11-13T23:15:38.305Z,18.57
2022-11-13T23:17:41.245Z,18.77
2022-11-13T23:19:43.963Z,19.37
2022-11-13T23:21:46.667Z,19.10
2022-11-13T23:23:49.341Z,20.17
2022-11-13T23:25:52.356Z,19.27
2022-11-13T23:27:56.302Z,18.37
2022-11-13T23:29:58.981Z,18.73
2022-11-13T23:32:01.592Z,17.70
2022-11-13T23:34:04.743Z,19.80
2022-11-13T23:36:07.641Z,18.60
2022-11-13T23:38:10.261Z,18.73
2022-11-13T23:40:13.113Z,19.60
2022-11-13T23:42:32.982Z,18.90
2022-11-13T23:44:40.612Z,18.17
2022-11-13T23:46:43.222Z,18.23
2022-11-13T23:48:46.226Z,18.60
2022-11-13T23:50:48.870Z,18.37
2022-11-13T23:52:51.581Z,17.77
2022-11-13T23:54:54.199Z,19.73
2022-11-13T23:56:57.418Z,18.40
2022-11-13T23:59:00.103Z,18.40
